Ponca City Regional

About
Name: Ponca City Regional
Identifier:  PNC/KPNC
Serves:  Ponca City, Oklahoma
Owner:  City of Ponca City
Public/Private:  Public
Local Time:  23. Aug 00:01 CDT
Description: Ponca City Regional Airport is a city-owned airport two miles northwest of Ponca City, in Kay County, Oklahoma. Enrique's is a well known Mexican restaurant in the terminal.
Source: Wikipedia
Location
Runways
Identifier Length (m/ft) Surface
17/35 7,201/7,201 Concrete
Flights per Day
0 flights
Distance: 419km (260mi)
Punctuality
0% (0 flights per day delayed)
Delay Average: 20 minutes
Current Weather
 24 C (Humidity: 88%)
  4kt (7km/h / 4mph) from 50°
  16km (10 mi.)
 
 METAR KPNC 230353Z AUTO 05004KT 10SM CLR 24/22 A2995 RMK AO2 SLP130 T02390217

Current Flights

Departures
Number Departure To Airline
Arrivals
Number Arrival From Airline

Current Delays

Departures
N/A
Arrivals
N/A

Destinations

Top Destinations
Airport Flights
per week
Seats
per week
  Coffeyville (CFV) 1 - 0 0
  Dallas (ADS) 0 - 0 0
  Tulsa (RVS) 0 - 0 0
  Oklahoma City (PWA) 0 - 0 0
  Worthington (OTG) 0 - 0 0
  Bentonville (XNA) 0 - 0 0
  Wichita (ICT) 0 - 0 0
  Poplar Bluff (POF) 0 - 0 0
  Kansas City (OJC) 0 - 0 0

Airlines & Planes

Top Airlines
Airline Flights
per Day
Seats
per Day
  Nolinor Aviation 0 -
Jet Charter Inc ( Franklin Lakes Nj ) 0 -
  National Airlines 0 -
Nordwind Airlines 0 -
  Novair 0 -
Top Plane Types
Model Flights Seats
Cessna C172 0.2/day - 0
Beech E90 King Air 0.1/day - 0